If you wish to contribute or participate in the discussions about articles you are invited to join SKYbrary as a registered user

 Actions

Kavala/Chrysoupoli International Airport

From SKYbrary Wiki

LGKV
Airport
ICAO: LGKV
Summary
Name Kavala/Chrysoupoli International Airport
Region Europe
Territory Greece GR.gif
Location Chrysoupoli
Serving
Coordinates 39° 36' 7.00" N, 19° 54' 44.00" E
Runways
Designator Length Width Surface ROPS
05R/23L 3000 m9,842.52 ft <br /> 45 m147.638 ft <br /> ASP yes/yes


METAR
Observation LGKV 051220Z 20006KT 9999 FEW020 16/09 Q1015
Station Chrysoupoli Airport
Date/Time 05 March 2021 12:20:00
Wind direction 200°
Wind speed 06 kts
Lowest cloud amount few clouds
Temperature 16°C
Dew point 9°C
Humidity 63%
QNH 1015 hPa
Weather condition n/a

Kavala/Chrysoupoli International Airport

ICAO: LGKV IATA: KVA

Description

Kavala International Airport "Alexander the Great" is an airport located in the municipality of Nestos, in Greece.

Climatology

Mediterranean climate (Köppen climate classification Csa) - Hot, dry summer and a mild wet winter.

Maps

Terrain

Loading map...

Airport Layout

Loading map...


Accidents & Serious Incidents at or in vicinity of LGKV

None on SKYbrary